PWSweather.com
Personal Weather Stations
Station Observations
HELOTES
Helotes Park Terrace, Helotes, TX 78023

Helotes Park TerraceHelotes, TX 78023

Lat: 29.57, Lon: -98.68

Elevation: 1060

Station Type: Ambient Weather WS-1090

Latest ConditionsUpdated 6:17:49 PM CST Monday, Nov 24, 2014
Currently Today's Max Today's Min Today's Average
Temperature 54.4°F12.4°C 61.0°F16.1°C 47.5°F8.6°C 54.7°F12.6°C
Dew Point 37.1°F2.8°C 45.8°F7.7°C 37.1°F2.8°C 40.1°F4.5°C
Winds 1.9 mph N3.1 kmh N 12.1 mph W19.5 kmh W - 4.1 mph 6.6 kmh
Wind Gusts 2.5 mph4.0 kmh 13.9 mph22.4 kmh - -
Humidity 52% 69% 44% 58%
Pressure 29.98 in1015.2 mb 30.02 in1016.6 mb 29.75 in1007.5 mb -
Hour Temp Dew Point Humidity Winds Wind Gusts Pressure Precip Precip Rate Daily Precip Total
06:17 PM 54.4°F12.4°C 37.1°F2.8°C 52% 1.9 mph N3.1 kmh N 2.5 mph4.0 kmh 29.98 in1015.2 mb 0.00 in0.0 mm 0.00 in/hr0.0 mm/hr 0.00 in0.0 mm
06:12 PM 54.5°F12.5°C 37.2°F2.9°C 52% 1.7 mph NNW2.7 kmh NNW 2.5 mph4.0 kmh 29.98 in1015.2 mb 0.00 in0.0 mm 0.00 in/hr0.0 mm/hr 0.00 in0.0 mm
06:07 PM 54.9°F12.7°C 37.5°F3.1°C 52% 1.3 mph 2.1 kmh 2.5 mph4.0 kmh 29.98 in1015.2 mb 0.00 in0.0 mm 0.00 in/hr0.0 mm/hr 0.00 in0.0 mm
06:02 PM 55.3°F12.9°C 37.4°F3.0°C 51% 1.1 mph N1.8 kmh N 1.6 mph2.6 kmh 29.98 in1015.2 mb 0.00 in0.0 mm 0.00 in/hr0.0 mm/hr 0.00 in0.0 mm
05:57 PM 55.6°F13.1°C 37.7°F3.2°C 51% 0.7 mph NNW1.1 kmh NNW 2.2 mph3.5 kmh 29.98 in1015.2 mb 0.00 in0.0 mm 0.00 in/hr0.0 mm/hr 0.00 in0.0 mm
05:52 PM 55.8°F13.2°C 37.9°F3.3°C 51% 1.5 mph NNW2.4 kmh NNW 2.2 mph3.5 kmh 29.98 in1015.2 mb 0.00 in0.0 mm 0.00 in/hr0.0 mm/hr 0.00 in0.0 mm
05:47 PM 56.2°F13.4°C 38.7°F3.7°C 52% 0.9 mph NNW1.4 kmh NNW 2.2 mph3.5 kmh 29.98 in1015.2 mb 0.00 in0.0 mm 0.00 in/hr0.0 mm/hr 0.00 in0.0 mm
05:42 PM 56.5°F13.6°C 38.6°F3.7°C 51% 1.3 mph N2.1 kmh N 2.2 mph3.5 kmh 29.98 in1015.2 mb 0.00 in0.0 mm 0.00 in/hr0.0 mm/hr 0.00 in0.0 mm
05:37 PM 56.9°F13.8°C 39.0°F3.9°C 51% 1.2 mph NW1.9 kmh NW 2.0 mph3.2 kmh 29.98 in1015.2 mb 0.00 in0.0 mm 0.00 in/hr0.0 mm/hr 0.00 in0.0 mm
05:32 PM 57.1°F13.9°C 39.2°F4.0°C 51% 1.3 mph WNW2.1 kmh WNW 2.5 mph4.0 kmh 29.97 in1014.9 mb 0.00 in0.0 mm 0.00 in/hr0.0 mm/hr 0.00 in0.0 mm
05:27 PM 57.2°F14.0°C 39.3°F4.1°C 51% 0.9 mph NW1.4 kmh NW 3.4 mph5.5 kmh 29.97 in1014.9 mb 0.00 in0.0 mm 0.00 in/hr0.0 mm/hr 0.00 in0.0 mm
05:22 PM 57.6°F14.2°C 39.7°F4.3°C 51% 1.8 mph NW2.9 kmh NW 3.4 mph5.5 kmh 29.97 in1014.9 mb 0.00 in0.0 mm 0.00 in/hr0.0 mm/hr 0.00 in0.0 mm
05:17 PM 57.8°F14.3°C 39.9°F4.4°C 51% 2.3 mph NW3.7 kmh NW 3.4 mph5.5 kmh 29.97 in1014.9 mb 0.00 in0.0 mm 0.00 in/hr0.0 mm/hr 0.00 in0.0 mm
05:12 PM 58.1°F14.5°C 39.7°F4.3°C 50% 0.9 mph N1.4 kmh N 3.1 mph5.0 kmh 29.96 in1014.6 mb 0.00 in0.0 mm 0.00 in/hr0.0 mm/hr 0.00 in0.0 mm
05:07 PM 58.3°F14.6°C 39.9°F4.4°C 50% 1.4 mph N2.3 kmh N 3.1 mph5.0 kmh 29.96 in1014.6 mb 0.00 in0.0 mm 0.00 in/hr0.0 mm/hr 0.00 in0.0 mm
05:02 PM 58.5°F14.7°C 40.1°F4.5°C 50% 2.0 mph NNW3.2 kmh NNW 4.7 mph7.6 kmh 29.96 in1014.6 mb 0.00 in0.0 mm 0.00 in/hr0.0 mm/hr 0.00 in0.0 mm
04:57 PM 58.7°F14.8°C 39.6°F4.2°C 49% 1.5 mph N2.4 kmh N 4.7 mph7.6 kmh 29.95 in1014.2 mb 0.00 in0.0 mm 0.00 in/hr0.0 mm/hr 0.00 in0.0 mm
04:52 PM 58.7°F14.8°C 39.6°F4.2°C 49% 2.8 mph NNW4.5 kmh NNW 3.4 mph5.5 kmh 29.95 in1014.2 mb 0.00 in0.0 mm 0.00 in/hr0.0 mm/hr 0.00 in0.0 mm
04:47 PM 59.0°F15.0°C 40.0°F4.4°C 49% 1.0 mph N1.6 kmh N 3.4 mph5.5 kmh 29.95 in1014.2 mb 0.00 in0.0 mm 0.00 in/hr0.0 mm/hr 0.00 in0.0 mm
04:42 PM 59.0°F15.0°C 39.3°F4.1°C 48% 1.9 mph NNW3.1 kmh NNW 6.0 mph9.7 kmh 29.95 in1014.2 mb 0.00 in0.0 mm 0.00 in/hr0.0 mm/hr 0.00 in0.0 mm
04:37 PM 59.0°F15.0°C 39.3°F4.1°C 48% 4.0 mph N6.4 kmh N 7.6 mph12.2 kmh 29.95 in1014.2 mb 0.00 in0.0 mm 0.00 in/hr0.0 mm/hr 0.00 in0.0 mm
04:32 PM 59.2°F15.1°C 39.5°F4.2°C 48% 4.4 mph N7.1 kmh N 7.6 mph12.2 kmh 29.94 in1013.9 mb 0.00 in0.0 mm 0.00 in/hr0.0 mm/hr 0.00 in0.0 mm
04:27 PM 59.4°F15.2°C 39.7°F4.3°C 48% 3.5 mph N5.6 kmh N 5.4 mph8.7 kmh 29.94 in1013.9 mb 0.00 in0.0 mm 0.00 in/hr0.0 mm/hr 0.00 in0.0 mm
04:22 PM 59.4°F15.2°C 39.1°F3.9°C 47% 1.8 mph N2.9 kmh N 5.1 mph8.2 kmh 29.94 in1013.9 mb 0.00 in0.0 mm 0.00 in/hr0.0 mm/hr 0.00 in0.0 mm
04:17 PM 59.6°F15.3°C 39.2°F4.0°C 47% 2.0 mph NNW3.2 kmh NNW 4.9 mph7.9 kmh 29.94 in1013.9 mb 0.00 in0.0 mm 0.00 in/hr0.0 mm/hr 0.00 in0.0 mm
04:12 PM 59.6°F15.3°C 39.2°F4.0°C 47% 3.0 mph NNW4.8 kmh NNW 5.8 mph9.3 kmh 29.94 in1013.9 mb 0.00 in0.0 mm 0.00 in/hr0.0 mm/hr 0.00 in0.0 mm
04:07 PM 59.8°F15.4°C 39.4°F4.1°C 47% 3.6 mph NW5.8 kmh NW 5.8 mph9.3 kmh 29.94 in1013.9 mb 0.00 in0.0 mm 0.00 in/hr0.0 mm/hr 0.00 in0.0 mm
04:02 PM 59.9°F15.5°C 39.6°F4.2°C 47% 1.7 mph N2.7 kmh N 5.4 mph8.7 kmh 29.94 in1013.9 mb 0.00 in0.0 mm 0.00 in/hr0.0 mm/hr 0.00 in0.0 mm
03:57 PM 59.9°F15.5°C 39.0°F3.9°C 46% 3.6 mph 5.8 kmh 6.3 mph10.1 kmh 29.94 in1013.9 mb 0.00 in0.0 mm 0.00 in/hr0.0 mm/hr 0.00 in0.0 mm
03:52 PM 60.1°F15.6°C 38.6°F3.7°C 45% 3.7 mph N6.0 kmh N 6.3 mph10.1 kmh 29.94 in1013.9 mb 0.00 in0.0 mm 0.00 in/hr0.0 mm/hr 0.00 in0.0 mm
03:47 PM 60.1°F15.6°C 39.2°F4.0°C 46% 3.2 mph N5.1 kmh N 5.1 mph8.2 kmh 29.94 in1013.9 mb 0.00 in0.0 mm 0.00 in/hr0.0 mm/hr 0.00 in0.0 mm
03:42 PM 60.1°F15.6°C 39.2°F4.0°C 46% 2.9 mph NNW4.7 kmh NNW 5.1 mph8.2 kmh 29.94 in1013.9 mb 0.00 in0.0 mm 0.00 in/hr0.0 mm/hr 0.00 in0.0 mm
03:37 PM 60.3°F15.7°C 39.3°F4.1°C 46% 2.7 mph N4.3 kmh N 7.2 mph11.6 kmh 29.94 in1013.9 mb 0.00 in0.0 mm 0.00 in/hr0.0 mm/hr 0.00 in0.0 mm
03:32 PM 60.3°F15.7°C 38.8°F3.8°C 45% 5.0 mph N8.0 kmh N 8.5 mph13.7 kmh 29.94 in1013.9 mb 0.00 in0.0 mm 0.00 in/hr0.0 mm/hr 0.00 in0.0 mm
03:27 PM 60.5°F15.8°C 38.9°F3.8°C 45% 5.5 mph N8.9 kmh N 8.5 mph13.7 kmh 29.94 in1013.9 mb 0.00 in0.0 mm 0.00 in/hr0.0 mm/hr 0.00 in0.0 mm
03:22 PM 60.5°F15.8°C 39.5°F4.2°C 46% 2.3 mph N3.7 kmh N 5.4 mph8.7 kmh 29.94 in1013.9 mb 0.00 in0.0 mm 0.00 in/hr0.0 mm/hr 0.00 in0.0 mm
03:17 PM 60.7°F15.9°C 40.2°F4.6°C 47% 2.9 mph NE4.7 kmh NE 5.4 mph8.7 kmh 29.94 in1013.9 mb 0.00 in0.0 mm 0.00 in/hr0.0 mm/hr 0.00 in0.0 mm
03:12 PM 60.8°F16.0°C 40.4°F4.7°C 47% 2.3 mph WNW3.7 kmh WNW 5.4 mph8.7 kmh 29.94 in1013.9 mb 0.00 in0.0 mm 0.00 in/hr0.0 mm/hr 0.00 in0.0 mm
03:07 PM 60.8°F16.0°C 40.4°F4.7°C 47% 4.0 mph NW6.4 kmh NW 5.1 mph8.2 kmh 29.94 in1013.9 mb 0.00 in0.0 mm 0.00 in/hr0.0 mm/hr 0.00 in0.0 mm
03:02 PM 60.8°F16.0°C 40.4°F4.7°C 47% 4.0 mph 6.4 kmh 6.0 mph9.7 kmh 29.94 in1013.9 mb 0.00 in0.0 mm 0.00 in/hr0.0 mm/hr 0.00 in0.0 mm
02:57 PM 60.8°F16.0°C 39.8°F4.3°C 46% 2.8 mph NW4.5 kmh NW 7.2 mph11.6 kmh 29.94 in1013.9 mb 0.00 in0.0 mm 0.00 in/hr0.0 mm/hr 0.00 in0.0 mm
02:52 PM 60.8°F16.0°C 39.8°F4.3°C 46% 3.6 mph N5.8 kmh N 7.2 mph11.6 kmh 29.94 in1013.9 mb 0.00 in0.0 mm 0.00 in/hr0.0 mm/hr 0.00 in0.0 mm
02:47 PM 60.8°F16.0°C 39.2°F4.0°C 45% 3.4 mph NW5.5 kmh NW 6.7 mph10.8 kmh 29.95 in1014.2 mb 0.00 in0.0 mm 0.00 in/hr0.0 mm/hr 0.00 in0.0 mm
02:42 PM 60.8°F16.0°C 39.8°F4.3°C 46% 5.0 mph N8.0 kmh N 6.9 mph11.1 kmh 29.94 in1013.9 mb 0.00 in0.0 mm 0.00 in/hr0.0 mm/hr 0.00 in0.0 mm
02:36 PM 60.7°F15.9°C 39.7°F4.3°C 46% 3.6 mph 5.8 kmh 8.5 mph13.7 kmh 29.95 in1014.2 mb 0.00 in0.0 mm 0.00 in/hr0.0 mm/hr 0.00 in0.0 mm
02:31 PM 60.7°F15.9°C 40.8°F4.9°C 48% 3.3 mph N5.3 kmh N 8.5 mph13.7 kmh 29.95 in1014.2 mb 0.00 in0.0 mm 0.00 in/hr0.0 mm/hr 0.00 in0.0 mm
02:27 PM 60.5°F15.8°C 40.1°F4.5°C 47% 2.8 mph NNW4.5 kmh NNW 6.3 mph10.1 kmh 29.96 in1014.6 mb 0.00 in0.0 mm 0.00 in/hr0.0 mm/hr 0.00 in0.0 mm
02:21 PM 60.5°F15.8°C 39.5°F4.2°C 46% 2.5 mph NW4.0 kmh NW 7.4 mph11.9 kmh 29.96 in1014.6 mb 0.00 in0.0 mm 0.00 in/hr0.0 mm/hr 0.00 in0.0 mm
02:16 PM 60.5°F15.8°C 40.1°F4.5°C 47% 1.3 mph NE2.1 kmh NE 7.4 mph11.9 kmh 29.95 in1014.2 mb 0.00 in0.0 mm 0.00 in/hr0.0 mm/hr 0.00 in0.0 mm
02:11 PM 60.5°F15.8°C 39.5°F4.2°C 46% 3.2 mph NNW5.1 kmh NNW 7.4 mph11.9 kmh 29.96 in1014.6 mb 0.00 in0.0 mm 0.00 in/hr0.0 mm/hr 0.00 in0.0 mm
02:06 PM 60.7°F15.9°C 39.1°F3.9°C 45% 2.5 mph NW4.0 kmh NW 9.6 mph15.4 kmh 29.96 in1014.6 mb 0.00 in0.0 mm 0.00 in/hr0.0 mm/hr 0.00 in0.0 mm
02:01 PM 60.8°F16.0°C 38.7°F3.7°C 44% 4.8 mph NNE7.7 kmh NNE 9.6 mph15.4 kmh 29.97 in1014.9 mb 0.00 in0.0 mm 0.00 in/hr0.0 mm/hr 0.00 in0.0 mm
01:56 PM 60.8°F16.0°C 39.8°F4.3°C 46% 3.2 mph WNW5.1 kmh WNW 5.8 mph9.3 kmh 29.96 in1014.6 mb 0.00 in0.0 mm 0.00 in/hr0.0 mm/hr 0.00 in0.0 mm
01:51 PM 60.8°F16.0°C 39.8°F4.3°C 46% 3.6 mph NW5.8 kmh NW 5.8 mph9.3 kmh 29.97 in1014.9 mb 0.00 in0.0 mm 0.00 in/hr0.0 mm/hr 0.00 in0.0 mm
01:46 PM 60.8°F16.0°C 40.4°F4.7°C 47% 2.3 mph N3.7 kmh N 5.1 mph8.2 kmh 29.97 in1014.9 mb 0.00 in0.0 mm 0.00 in/hr0.0 mm/hr 0.00 in0.0 mm
01:41 PM 61.0°F16.1°C 40.0°F4.4°C 46% 3.7 mph NW6.0 kmh NW 7.6 mph12.2 kmh 29.97 in1014.9 mb 0.00 in0.0 mm 0.00 in/hr0.0 mm/hr 0.00 in0.0 mm
01:36 PM 61.0°F16.1°C 39.4°F4.1°C 45% 3.9 mph W6.3 kmh W 7.6 mph12.2 kmh 29.97 in1014.9 mb 0.00 in0.0 mm 0.00 in/hr0.0 mm/hr 0.00 in0.0 mm
01:31 PM 61.0°F16.1°C 40.6°F4.8°C 47% 2.1 mph NNW3.4 kmh NNW 8.5 mph13.7 kmh 29.97 in1014.9 mb 0.00 in0.0 mm 0.00 in/hr0.0 mm/hr 0.00 in0.0 mm
01:26 PM 61.0°F16.1°C 41.1°F5.1°C 48% 3.6 mph NNW5.8 kmh NNW 8.5 mph13.7 kmh 29.97 in1014.9 mb 0.00 in0.0 mm 0.00 in/hr0.0 mm/hr 0.00 in0.0 mm
01:21 PM 61.0°F16.1°C 41.7°F5.4°C 49% 3.8 mph NW6.1 kmh NW 6.5 mph10.5 kmh 29.97 in1014.9 mb 0.00 in0.0 mm 0.00 in/hr0.0 mm/hr 0.00 in0.0 mm
01:16 PM 61.0°F16.1°C 41.1°F5.1°C 48% 4.8 mph W7.7 kmh W 8.5 mph13.7 kmh 29.97 in1014.9 mb 0.00 in0.0 mm 0.00 in/hr0.0 mm/hr 0.00 in0.0 mm
01:11 PM 61.0°F16.1°C 40.6°F4.8°C 47% 3.9 mph NW6.3 kmh NW 11.2 mph18.0 kmh 29.97 in1014.9 mb 0.00 in0.0 mm 0.00 in/hr0.0 mm/hr 0.00 in0.0 mm
01:06 PM 60.8°F16.0°C 40.4°F4.7°C 47% 6.8 mph WSW10.9 kmh WSW 11.2 mph18.0 kmh 29.97 in1014.9 mb 0.00 in0.0 mm 0.00 in/hr0.0 mm/hr 0.00 in0.0 mm
01:01 PM 60.8°F16.0°C 41.0°F5.0°C 48% 3.5 mph WSW5.6 kmh WSW 4.7 mph7.6 kmh 29.98 in1015.2 mb 0.00 in0.0 mm 0.00 in/hr0.0 mm/hr 0.00 in0.0 mm
12:56 PM 60.8°F16.0°C 40.4°F4.7°C 47% 3.0 mph NNW4.8 kmh NNW 6.3 mph10.1 kmh 29.99 in1015.6 mb 0.00 in0.0 mm 0.00 in/hr0.0 mm/hr 0.00 in0.0 mm
12:51 PM 60.8°F16.0°C 40.4°F4.7°C 47% 3.6 mph W5.8 kmh W 6.3 mph10.1 kmh 29.99 in1015.6 mb 0.00 in0.0 mm 0.00 in/hr0.0 mm/hr 0.00 in0.0 mm
12:46 PM 60.8°F16.0°C 41.6°F5.3°C 49% 3.4 mph WNW5.5 kmh WNW 6.9 mph11.1 kmh 29.99 in1015.6 mb 0.00 in0.0 mm 0.00 in/hr0.0 mm/hr 0.00 in0.0 mm
12:41 PM 61.0°F16.1°C 41.7°F5.4°C 49% 3.6 mph NNW5.8 kmh NNW 6.9 mph11.1 kmh 29.99 in1015.6 mb 0.00 in0.0 mm 0.00 in/hr0.0 mm/hr 0.00 in0.0 mm
12:36 PM 61.0°F16.1°C 41.7°F5.4°C 49% 2.2 mph N3.5 kmh N 8.1 mph13.0 kmh 29.99 in1015.6 mb 0.00 in0.0 mm 0.00 in/hr0.0 mm/hr 0.00 in0.0 mm
12:31 PM 61.0°F16.1°C 41.1°F5.1°C 48% 7.7 mph W12.4 kmh W 8.1 mph13.0 kmh 30.00 in1015.9 mb 0.00 in0.0 mm 0.00 in/hr0.0 mm/hr 0.00 in0.0 mm
12:26 PM 61.0°F16.1°C 41.7°F5.4°C 49% 2.5 mph NW4.0 kmh NW 9.2 mph14.8 kmh 30.00 in1015.9 mb 0.00 in0.0 mm 0.00 in/hr0.0 mm/hr 0.00 in0.0 mm
12:21 PM 61.0°F16.1°C 41.7°F5.4°C 49% 3.7 mph NNW6.0 kmh NNW 9.2 mph14.8 kmh 30.00 in1015.9 mb 0.00 in0.0 mm 0.00 in/hr0.0 mm/hr 0.00 in0.0 mm
12:16 PM 61.0°F16.1°C 42.3°F5.7°C 50% 2.0 mph NNW3.2 kmh NNW 10.3 mph16.6 kmh 30.00 in1015.9 mb 0.00 in0.0 mm 0.00 in/hr0.0 mm/hr 0.00 in0.0 mm
12:11 PM 61.0°F16.1°C 42.3°F5.7°C 50% 1.8 mph NW2.9 kmh NW 10.3 mph16.6 kmh 30.01 in1016.3 mb 0.00 in0.0 mm 0.00 in/hr0.0 mm/hr 0.00 in0.0 mm
12:06 PM 60.8°F16.0°C 41.6°F5.3°C 49% 4.9 mph N7.9 kmh N 10.3 mph16.6 kmh 30.01 in1016.3 mb 0.00 in0.0 mm 0.00 in/hr0.0 mm/hr 0.00 in0.0 mm
12:01 PM 60.8°F16.0°C 42.1°F5.6°C 50% 3.5 mph WNW5.6 kmh WNW 5.6 mph9.0 kmh 30.01 in1016.3 mb 0.00 in0.0 mm 0.00 in/hr0.0 mm/hr 0.00 in0.0 mm
11:56 AM 60.8°F16.0°C 42.1°F5.6°C 50% 3.4 mph NW5.5 kmh NW 6.0 mph9.7 kmh 30.01 in1016.3 mb 0.00 in0.0 mm 0.00 in/hr0.0 mm/hr 0.00 in0.0 mm
11:51 AM 60.8°F16.0°C 42.6°F5.9°C 51% 1.3 mph NW2.1 kmh NW 6.0 mph9.7 kmh 30.01 in1016.3 mb 0.00 in0.0 mm 0.00 in/hr0.0 mm/hr 0.00 in0.0 mm
11:46 AM 60.7°F15.9°C 42.5°F5.8°C 51% 2.8 mph WSW4.5 kmh WSW 7.6 mph12.2 kmh 30.01 in1016.3 mb 0.00 in0.0 mm 0.00 in/hr0.0 mm/hr 0.00 in0.0 mm
11:41 AM 60.5°F15.8°C 41.8°F5.4°C 50% 3.8 mph WNW6.1 kmh WNW 7.6 mph12.2 kmh 30.02 in1016.6 mb 0.00 in0.0 mm 0.00 in/hr0.0 mm/hr 0.00 in0.0 mm
11:36 AM 60.3°F15.7°C 42.6°F5.9°C 52% 3.4 mph W5.5 kmh W 7.6 mph12.2 kmh 30.01 in1016.3 mb 0.00 in0.0 mm 0.00 in/hr0.0 mm/hr 0.00 in0.0 mm
11:31 AM 59.8°F15.4°C 43.0°F6.1°C 54% 2.7 mph NW4.3 kmh NW 7.2 mph11.6 kmh 30.01 in1016.3 mb 0.00 in0.0 mm 0.00 in/hr0.0 mm/hr 0.00 in0.0 mm
11:26 AM 59.2°F15.1°C 42.0°F5.6°C 53% 3.0 mph W4.8 kmh W 9.8 mph15.8 kmh 30.01 in1016.3 mb 0.00 in0.0 mm 0.00 in/hr0.0 mm/hr 0.00 in0.0 mm
11:21 AM 58.7°F14.8°C 41.6°F5.3°C 53% 4.7 mph NW7.6 kmh NW 9.8 mph15.8 kmh 30.01 in1016.3 mb 0.00 in0.0 mm 0.00 in/hr0.0 mm/hr 0.00 in0.0 mm
11:16 AM 58.5°F14.7°C 41.0°F5.0°C 52% 5.6 mph N9.0 kmh N 7.4 mph11.9 kmh 30.01 in1016.3 mb 0.00 in0.0 mm 0.00 in/hr0.0 mm/hr 0.00 in0.0 mm
11:11 AM 58.3°F14.6°C 41.8°F5.4°C 54% 2.7 mph NW4.3 kmh NW 6.9 mph11.1 kmh 30.01 in1016.3 mb 0.00 in0.0 mm 0.00 in/hr0.0 mm/hr 0.00 in0.0 mm
11:06 AM 58.1°F14.5°C 41.6°F5.3°C 54% 2.3 mph NNW3.7 kmh NNW 9.8 mph15.8 kmh 30.01 in1016.3 mb 0.00 in0.0 mm 0.00 in/hr0.0 mm/hr 0.00 in0.0 mm
11:01 AM 58.0°F14.4°C 41.4°F5.2°C 54% 1.7 mph WSW2.7 kmh WSW 12.8 mph20.6 kmh 30.02 in1016.6 mb 0.00 in0.0 mm 0.00 in/hr0.0 mm/hr 0.00 in0.0 mm
10:56 AM 57.6°F14.2°C 41.0°F5.0°C 54% 6.9 mph N11.1 kmh N 12.8 mph20.6 kmh 30.01 in1016.3 mb 0.00 in0.0 mm 0.00 in/hr0.0 mm/hr 0.00 in0.0 mm
10:51 AM 57.2°F14.0°C 40.8°F4.9°C 54% 2.7 mph NNW4.3 kmh NNW 10.3 mph16.6 kmh 30.02 in1016.6 mb 0.00 in0.0 mm 0.00 in/hr0.0 mm/hr 0.00 in0.0 mm
10:46 AM 56.9°F13.8°C 40.4°F4.7°C 54% 5.5 mph NNW8.9 kmh NNW 10.3 mph16.6 kmh 30.01 in1016.3 mb 0.00 in0.0 mm 0.00 in/hr0.0 mm/hr 0.00 in0.0 mm
10:41 AM 56.5°F13.6°C 41.4°F5.2°C 57% 3.6 mph NW5.8 kmh NW 6.3 mph10.1 kmh 30.01 in1016.3 mb 0.00 in0.0 mm 0.00 in/hr0.0 mm/hr 0.00 in0.0 mm
10:36 AM 56.0°F13.3°C 41.4°F5.2°C 58% 5.0 mph NNW8.0 kmh NNW 6.3 mph10.1 kmh 30.02 in1016.6 mb 0.00 in0.0 mm 0.00 in/hr0.0 mm/hr 0.00 in0.0 mm
10:31 AM 55.8°F13.2°C 41.7°F5.4°C 59% 1.8 mph NW2.9 kmh NW 5.8 mph9.3 kmh 30.02 in1016.6 mb 0.00 in0.0 mm 0.00 in/hr0.0 mm/hr 0.00 in0.0 mm
10:26 AM 55.6°F13.1°C 41.5°F5.3°C 59% 3.6 mph W5.8 kmh W 5.8 mph9.3 kmh 30.02 in1016.6 mb 0.00 in0.0 mm 0.00 in/hr0.0 mm/hr 0.00 in0.0 mm
10:21 AM 55.3°F12.9°C 41.1°F5.1°C 59% 3.8 mph N6.1 kmh N 9.2 mph14.8 kmh 30.02 in1016.6 mb 0.00 in0.0 mm 0.00 in/hr0.0 mm/hr 0.00 in0.0 mm
10:16 AM 55.1°F12.8°C 41.0°F5.0°C 59% 3.5 mph NW5.6 kmh NW 9.2 mph14.8 kmh 30.02 in1016.6 mb 0.00 in0.0 mm 0.00 in/hr0.0 mm/hr 0.00 in0.0 mm
10:11 AM 54.7°F12.6°C 41.1°F5.1°C 60% 2.4 mph NW3.9 kmh NW 7.6 mph12.2 kmh 30.01 in1016.3 mb 0.00 in0.0 mm 0.00 in/hr0.0 mm/hr 0.00 in0.0 mm
10:06 AM 54.5°F12.5°C 41.0°F5.0°C 60% 2.7 mph WNW4.3 kmh WNW 6.3 mph10.1 kmh 30.01 in1016.3 mb 0.00 in0.0 mm 0.00 in/hr0.0 mm/hr 0.00 in0.0 mm
10:01 AM 54.2°F12.3°C 41.4°F5.2°C 62% 5.0 mph WNW8.0 kmh WNW 6.3 mph10.1 kmh 30.01 in1016.3 mb 0.00 in0.0 mm 0.00 in/hr0.0 mm/hr 0.00 in0.0 mm
09:56 AM 53.8°F12.1°C 41.1°F5.1°C 62% 2.5 mph W4.0 kmh W 8.5 mph13.7 kmh 30.01 in1016.3 mb 0.00 in0.0 mm 0.00 in/hr0.0 mm/hr 0.00 in0.0 mm
09:50 AM 53.5°F11.9°C 40.8°F4.9°C 62% 4.2 mph NW6.8 kmh NW 8.5 mph13.7 kmh 30.01 in1016.3 mb 0.00 in0.0 mm 0.00 in/hr0.0 mm/hr 0.00 in0.0 mm
09:45 AM 53.1°F11.7°C 40.8°F4.9°C 63% 5.6 mph SW9.0 kmh SW 8.5 mph13.7 kmh 30.01 in1016.3 mb 0.00 in0.0 mm 0.00 in/hr0.0 mm/hr 0.00 in0.0 mm
09:40 AM 52.9°F11.6°C 40.6°F4.8°C 63% 6.4 mph W10.3 kmh W 8.5 mph13.7 kmh 30.01 in1016.3 mb 0.00 in0.0 mm 0.00 in/hr0.0 mm/hr 0.00 in0.0 mm
09:35 AM 52.7°F11.5°C 40.1°F4.5°C 62% 2.9 mph W4.7 kmh W 9.4 mph15.1 kmh 30.00 in1015.9 mb 0.00 in0.0 mm 0.00 in/hr0.0 mm/hr 0.00 in0.0 mm
09:30 AM 52.6°F11.4°C 40.3°F4.6°C 63% 4.9 mph W7.9 kmh W 9.8 mph15.8 kmh 30.00 in1015.9 mb 0.00 in0.0 mm 0.00 in/hr0.0 mm/hr 0.00 in0.0 mm
09:25 AM 52.4°F11.3°C 40.5°F4.7°C 64% 6.0 mph WNW9.7 kmh WNW 9.8 mph15.8 kmh 30.00 in1015.9 mb 0.00 in0.0 mm 0.00 in/hr0.0 mm/hr 0.00 in0.0 mm
09:20 AM 52.2°F11.2°C 40.3°F4.6°C 64% 5.7 mph WNW9.2 kmh WNW 8.1 mph13.0 kmh 30.01 in1016.3 mb 0.00 in0.0 mm 0.00 in/hr0.0 mm/hr 0.00 in0.0 mm
09:15 AM 52.0°F11.1°C 40.6°F4.8°C 65% 1.8 mph WNW2.9 kmh WNW 8.7 mph14.0 kmh 30.00 in1015.9 mb 0.00 in0.0 mm 0.00 in/hr0.0 mm/hr 0.00 in0.0 mm
09:10 AM 51.5°F10.8°C 39.7°F4.3°C 64% 6.7 mph W10.8 kmh W 9.2 mph14.8 kmh 30.00 in1015.9 mb 0.00 in0.0 mm 0.00 in/hr0.0 mm/hr 0.00 in0.0 mm
09:05 AM 51.3°F10.7°C 40.3°F4.6°C 66% 4.2 mph W6.8 kmh W 9.2 mph14.8 kmh 30.00 in1015.9 mb 0.00 in0.0 mm 0.00 in/hr0.0 mm/hr 0.00 in0.0 mm
09:00 AM 50.9°F10.5°C 40.3°F4.6°C 67% 5.6 mph W9.0 kmh W 7.6 mph12.2 kmh 29.99 in1015.6 mb 0.00 in0.0 mm 0.00 in/hr0.0 mm/hr 0.00 in0.0 mm
08:55 AM 50.8°F10.4°C 40.2°F4.6°C 67% 3.1 mph NW5.0 kmh NW 7.2 mph11.6 kmh 29.99 in1015.6 mb 0.00 in0.0 mm 0.00 in/hr0.0 mm/hr 0.00 in0.0 mm
08:50 AM 50.2°F10.1°C 39.7°F4.3°C 67% 5.2 mph WNW8.4 kmh WNW 7.2 mph11.6 kmh 29.99 in1015.6 mb 0.00 in0.0 mm 0.00 in/hr0.0 mm/hr 0.00 in0.0 mm
08:45 AM 49.9°F9.9°C 39.3°F4.1°C 67% 5.4 mph W8.7 kmh W 7.2 mph11.6 kmh 29.99 in1015.6 mb 0.00 in0.0 mm 0.00 in/hr0.0 mm/hr 0.00 in0.0 mm
08:40 AM 49.5°F9.7°C 39.0°F3.9°C 67% 3.1 mph NW5.0 kmh NW 9.4 mph15.1 kmh 29.98 in1015.2 mb 0.00 in0.0 mm 0.00 in/hr0.0 mm/hr 0.00 in0.0 mm
08:35 AM 49.1°F9.5°C 38.6°F3.7°C 67% 5.7 mph WNW9.2 kmh WNW 9.4 mph15.1 kmh 29.98 in1015.2 mb 0.00 in0.0 mm 0.00 in/hr0.0 mm/hr 0.00 in0.0 mm
08:30 AM 49.0°F9.4°C 38.8°F3.8°C 68% 3.6 mph W5.8 kmh W 5.1 mph8.2 kmh 29.98 in1015.2 mb 0.00 in0.0 mm 0.00 in/hr0.0 mm/hr 0.00 in0.0 mm
08:25 AM 48.6°F9.2°C 38.5°F3.6°C 68% 4.6 mph WNW7.4 kmh WNW 5.1 mph8.2 kmh 29.98 in1015.2 mb 0.00 in0.0 mm 0.00 in/hr0.0 mm/hr 0.00 in0.0 mm
08:20 AM 48.4°F9.1°C 38.7°F3.7°C 69% 2.3 mph WSW3.7 kmh WSW 8.1 mph13.0 kmh 29.97 in1014.9 mb 0.00 in0.0 mm 0.00 in/hr0.0 mm/hr 0.00 in0.0 mm
08:15 AM 48.1°F8.9°C 38.0°F3.3°C 68% 5.2 mph NW8.4 kmh NW 8.1 mph13.0 kmh 29.97 in1014.9 mb 0.00 in0.0 mm 0.00 in/hr0.0 mm/hr 0.00 in0.0 mm
08:10 AM 47.9°F8.8°C 37.8°F3.2°C 68% 3.0 mph NW4.8 kmh NW 6.9 mph11.1 kmh 29.97 in1014.9 mb 0.00 in0.0 mm 0.00 in/hr0.0 mm/hr 0.00 in0.0 mm
08:05 AM 47.9°F8.8°C 37.8°F3.2°C 68% 1.6 mph WNW2.6 kmh WNW 5.4 mph8.7 kmh 29.96 in1014.6 mb 0.00 in0.0 mm 0.00 in/hr0.0 mm/hr 0.00 in0.0 mm
08:00 AM 47.7°F8.7°C 37.6°F3.1°C 68% 1.5 mph NW2.4 kmh NW 5.4 mph8.7 kmh 29.96 in1014.6 mb 0.00 in0.0 mm 0.00 in/hr0.0 mm/hr 0.00 in0.0 mm
07:55 AM 47.5°F8.6°C 37.9°F3.3°C 69% 2.6 mph WNW4.2 kmh WNW 7.4 mph11.9 kmh 29.95 in1014.2 mb 0.00 in0.0 mm 0.00 in/hr0.0 mm/hr 0.00 in0.0 mm
07:50 AM 47.5°F8.6°C 37.9°F3.3°C 69% 4.1 mph NW6.6 kmh NW 7.4 mph11.9 kmh 29.95 in1014.2 mb 0.00 in0.0 mm 0.00 in/hr0.0 mm/hr 0.00 in0.0 mm
07:45 AM 47.5°F8.6°C 37.4°F3.0°C 68% 2.4 mph WNW3.9 kmh WNW 4.7 mph7.6 kmh 29.95 in1014.2 mb 0.00 in0.0 mm 0.00 in/hr0.0 mm/hr 0.00 in0.0 mm
07:40 AM 47.5°F8.6°C 37.4°F3.0°C 68% 2.8 mph NNW4.5 kmh NNW 4.3 mph6.9 kmh 29.95 in1014.2 mb 0.00 in0.0 mm 0.00 in/hr0.0 mm/hr 0.00 in0.0 mm
07:35 AM 47.5°F8.6°C 37.4°F3.0°C 68% 3.2 mph NW5.1 kmh NW 7.2 mph11.6 kmh 29.94 in1013.9 mb 0.00 in0.0 mm 0.00 in/hr0.0 mm/hr 0.00 in0.0 mm
07:30 AM 47.7°F8.7°C 37.6°F3.1°C 68% 4.0 mph NW6.4 kmh NW 7.2 mph11.6 kmh 29.94 in1013.9 mb 0.00 in0.0 mm 0.00 in/hr0.0 mm/hr 0.00 in0.0 mm
07:25 AM 47.7°F8.7°C 37.6°F3.1°C 68% 3.0 mph WNW4.8 kmh WNW 7.4 mph11.9 kmh 29.93 in1013.5 mb 0.00 in0.0 mm 0.00 in/hr0.0 mm/hr 0.00 in0.0 mm
07:20 AM 47.7°F8.7°C 37.6°F3.1°C 68% 4.3 mph NW6.9 kmh NW 7.4 mph11.9 kmh 29.92 in1013.2 mb 0.00 in0.0 mm 0.00 in/hr0.0 mm/hr 0.00 in0.0 mm
07:15 AM 47.7°F8.7°C 37.6°F3.1°C 68% 4.2 mph WSW6.8 kmh WSW 7.4 mph11.9 kmh 29.92 in1013.2 mb 0.00 in0.0 mm 0.00 in/hr0.0 mm/hr 0.00 in0.0 mm
07:10 AM 47.9°F8.8°C 37.8°F3.2°C 68% 3.5 mph NW5.6 kmh NW 7.6 mph12.2 kmh 29.92 in1013.2 mb 0.00 in0.0 mm 0.00 in/hr0.0 mm/hr 0.00 in0.0 mm
07:05 AM 47.9°F8.8°C 37.5°F3.1°C 67% 4.3 mph NW6.9 kmh NW 9.2 mph14.8 kmh 29.92 in1013.2 mb 0.00 in0.0 mm 0.00 in/hr0.0 mm/hr 0.00 in0.0 mm
07:00 AM 47.9°F8.8°C 37.5°F3.1°C 67% 6.0 mph W9.7 kmh W 10.5 mph16.9 kmh 29.91 in1012.9 mb 0.00 in0.0 mm 0.00 in/hr0.0 mm/hr 0.00 in0.0 mm
06:55 AM 47.9°F8.8°C 37.5°F3.1°C 67% 6.8 mph W10.9 kmh W 10.5 mph16.9 kmh 29.91 in1012.9 mb 0.00 in0.0 mm 0.00 in/hr0.0 mm/hr 0.00 in0.0 mm
06:50 AM 47.9°F8.8°C 37.5°F3.1°C 67% 3.5 mph NW5.6 kmh NW 9.8 mph15.8 kmh 29.91 in1012.9 mb 0.00 in0.0 mm 0.00 in/hr0.0 mm/hr 0.00 in0.0 mm
06:45 AM 47.9°F8.8°C 37.5°F3.1°C 67% 5.1 mph WNW8.2 kmh WNW 7.6 mph12.2 kmh 29.90 in1012.5 mb 0.00 in0.0 mm 0.00 in/hr0.0 mm/hr 0.00 in0.0 mm
06:40 AM 48.1°F8.9°C 37.6°F3.1°C 67% 4.2 mph NW6.8 kmh NW 7.4 mph11.9 kmh 29.90 in1012.5 mb 0.00 in0.0 mm 0.00 in/hr0.0 mm/hr 0.00 in0.0 mm
06:35 AM 48.1°F8.9°C 37.6°F3.1°C 67% 5.2 mph NW8.4 kmh NW 7.4 mph11.9 kmh 29.90 in1012.5 mb 0.00 in0.0 mm 0.00 in/hr0.0 mm/hr 0.00 in0.0 mm
06:30 AM 48.2°F9.0°C 37.7°F3.2°C 67% 3.6 mph N5.8 kmh N 7.2 mph11.6 kmh 29.89 in1012.2 mb 0.00 in0.0 mm 0.00 in/hr0.0 mm/hr 0.00 in0.0 mm
06:25 AM 48.2°F9.0°C 37.7°F3.2°C 67% 2.4 mph WNW3.9 kmh WNW 7.6 mph12.2 kmh 29.89 in1012.2 mb 0.00 in0.0 mm 0.00 in/hr0.0 mm/hr 0.00 in0.0 mm
06:20 AM 48.2°F9.0°C 37.4°F3.0°C 66% 5.3 mph NNW8.5 kmh NNW 7.6 mph12.2 kmh 29.89 in1012.2 mb 0.00 in0.0 mm 0.00 in/hr0.0 mm/hr 0.00 in0.0 mm
06:15 AM 48.2°F9.0°C 37.7°F3.2°C 67% 4.9 mph NW7.9 kmh NW 7.2 mph11.6 kmh 29.88 in1011.9 mb 0.00 in0.0 mm 0.00 in/hr0.0 mm/hr 0.00 in0.0 mm
06:10 AM 48.2°F9.0°C 37.7°F3.2°C 67% 4.3 mph NW6.9 kmh NW 7.4 mph11.9 kmh 29.88 in1011.9 mb 0.00 in0.0 mm 0.00 in/hr0.0 mm/hr 0.00 in0.0 mm
06:05 AM 48.4°F9.1°C 37.9°F3.3°C 67% 4.5 mph NW7.2 kmh NW 7.4 mph11.9 kmh 29.87 in1011.5 mb 0.00 in0.0 mm 0.00 in/hr0.0 mm/hr 0.00 in0.0 mm
06:00 AM 48.4°F9.1°C 37.9°F3.3°C 67% 2.9 mph NW4.7 kmh NW 8.9 mph14.3 kmh 29.87 in1011.5 mb 0.00 in0.0 mm 0.00 in/hr0.0 mm/hr 0.00 in0.0 mm
05:55 AM 48.4°F9.1°C 37.9°F3.3°C 67% 5.3 mph NW8.5 kmh NW 10.5 mph16.9 kmh 29.87 in1011.5 mb 0.00 in0.0 mm 0.00 in/hr0.0 mm/hr 0.00 in0.0 mm
05:50 AM 48.4°F9.1°C 37.9°F3.3°C 67% 3.4 mph NW5.5 kmh NW 10.5 mph16.9 kmh 29.86 in1011.2 mb 0.00 in0.0 mm 0.00 in/hr0.0 mm/hr 0.00 in0.0 mm
05:45 AM 48.4°F9.1°C 37.9°F3.3°C 67% 4.4 mph NW7.1 kmh NW 8.9 mph14.3 kmh 29.86 in1011.2 mb 0.00 in0.0 mm 0.00 in/hr0.0 mm/hr 0.00 in0.0 mm
05:40 AM 48.4°F9.1°C 37.9°F3.3°C 67% 6.8 mph NW10.9 kmh NW 9.2 mph14.8 kmh 29.85 in1010.8 mb 0.00 in0.0 mm 0.00 in/hr0.0 mm/hr 0.00 in0.0 mm
05:35 AM 48.4°F9.1°C 38.4°F3.6°C 68% 4.7 mph NNW7.6 kmh NNW 9.8 mph15.8 kmh 29.85 in1010.8 mb 0.00 in0.0 mm 0.00 in/hr0.0 mm/hr 0.00 in0.0 mm
05:30 AM 48.4°F9.1°C 38.4°F3.6°C 68% 5.4 mph NW8.7 kmh NW 9.8 mph15.8 kmh 29.85 in1010.8 mb 0.00 in0.0 mm 0.00 in/hr0.0 mm/hr 0.00 in0.0 mm
05:25 AM 48.4°F9.1°C 38.4°F3.6°C 68% 2.7 mph NW4.3 kmh NW 10.1 mph16.3 kmh 29.84 in1010.5 mb 0.00 in0.0 mm 0.00 in/hr0.0 mm/hr 0.00 in0.0 mm
05:20 AM 48.4°F9.1°C 38.4°F3.6°C 68% 7.4 mph WNW11.9 kmh WNW 10.1 mph16.3 kmh 29.84 in1010.5 mb 0.00 in0.0 mm 0.00 in/hr0.0 mm/hr 0.00 in0.0 mm
05:14 AM 48.4°F9.1°C 38.4°F3.6°C 68% 4.4 mph WNW7.1 kmh WNW 10.5 mph16.9 kmh 29.84 in1010.5 mb 0.00 in0.0 mm 0.00 in/hr0.0 mm/hr 0.00 in0.0 mm
05:10 AM 48.6°F9.2°C 38.5°F3.6°C 68% 6.9 mph NNW11.1 kmh NNW 10.5 mph16.9 kmh 29.84 in1010.5 mb 0.00 in0.0 mm 0.00 in/hr0.0 mm/hr 0.00 in0.0 mm
05:04 AM 48.6°F9.2°C 38.5°F3.6°C 68% 5.9 mph NW9.5 kmh NW 7.8 mph12.6 kmh 29.84 in1010.5 mb 0.00 in0.0 mm 0.00 in/hr0.0 mm/hr 0.00 in0.0 mm
05:00 AM 48.8°F9.3°C 38.6°F3.7°C 68% 4.1 mph N6.6 kmh N 8.1 mph13.0 kmh 29.84 in1010.5 mb 0.00 in0.0 mm 0.00 in/hr0.0 mm/hr 0.00 in0.0 mm
04:55 AM 49.0°F9.4°C 38.8°F3.8°C 68% 6.2 mph NW10.0 kmh NW 8.1 mph13.0 kmh 29.84 in1010.5 mb 0.00 in0.0 mm 0.00 in/hr0.0 mm/hr 0.00 in0.0 mm
04:49 AM 49.0°F9.4°C 38.8°F3.8°C 68% 3.9 mph NW6.3 kmh NW 9.6 mph15.4 kmh 29.83 in1010.2 mb 0.00 in0.0 mm 0.00 in/hr0.0 mm/hr 0.00 in0.0 mm
04:44 AM 49.1°F9.5°C 39.0°F3.9°C 68% 4.4 mph W7.1 kmh W 13.9 mph22.4 kmh 29.83 in1010.2 mb 0.00 in0.0 mm 0.00 in/hr0.0 mm/hr 0.00 in0.0 mm
04:39 AM 49.3°F9.6°C 38.8°F3.8°C 67% 7.1 mph NW11.4 kmh NW 13.9 mph22.4 kmh 29.83 in1010.2 mb 0.00 in0.0 mm 0.00 in/hr0.0 mm/hr 0.00 in0.0 mm
04:34 AM 49.3°F9.6°C 38.8°F3.8°C 67% 4.9 mph NW7.9 kmh NW 9.8 mph15.8 kmh 29.83 in1010.2 mb 0.00 in0.0 mm 0.00 in/hr0.0 mm/hr 0.00 in0.0 mm
04:29 AM 49.3°F9.6°C 38.8°F3.8°C 67% 4.2 mph WNW6.8 kmh WNW 8.1 mph13.0 kmh 29.83 in1010.2 mb 0.00 in0.0 mm 0.00 in/hr0.0 mm/hr 0.00 in0.0 mm
04:24 AM 49.5°F9.7°C 39.0°F3.9°C 67% 5.8 mph NW9.3 kmh NW 8.5 mph13.7 kmh 29.83 in1010.2 mb 0.00 in0.0 mm 0.00 in/hr0.0 mm/hr 0.00 in0.0 mm
04:19 AM 49.5°F9.7°C 39.0°F3.9°C 67% 5.1 mph NW8.2 kmh NW 8.5 mph13.7 kmh 29.83 in1010.2 mb 0.00 in0.0 mm 0.00 in/hr0.0 mm/hr 0.00 in0.0 mm
04:14 AM 49.7°F9.8°C 39.2°F4.0°C 67% 7.6 mph NW12.2 kmh NW 8.3 mph13.4 kmh 29.83 in1010.2 mb 0.00 in0.0 mm 0.00 in/hr0.0 mm/hr 0.00 in0.0 mm
04:09 AM 49.7°F9.8°C 39.2°F4.0°C 67% 6.8 mph NW10.9 kmh NW 8.3 mph13.4 kmh 29.83 in1010.2 mb 0.00 in0.0 mm 0.00 in/hr0.0 mm/hr 0.00 in0.0 mm
04:04 AM 49.9°F9.9°C 39.3°F4.1°C 67% 3.6 mph W5.8 kmh W 8.3 mph13.4 kmh 29.83 in1010.2 mb 0.00 in0.0 mm 0.00 in/hr0.0 mm/hr 0.00 in0.0 mm
03:59 AM 50.0°F10.0°C 39.5°F4.2°C 67% 5.7 mph NW9.2 kmh NW 7.6 mph12.2 kmh 29.83 in1010.2 mb 0.00 in0.0 mm 0.00 in/hr0.0 mm/hr 0.00 in0.0 mm
03:54 AM 50.0°F10.0°C 39.1°F3.9°C 66% 4.9 mph WNW7.9 kmh WNW 8.7 mph14.0 kmh 29.83 in1010.2 mb 0.00 in0.0 mm 0.00 in/hr0.0 mm/hr 0.00 in0.0 mm
03:49 AM 50.0°F10.0°C 39.1°F3.9°C 66% 6.8 mph NW10.9 kmh NW 8.7 mph14.0 kmh 29.83 in1010.2 mb 0.00 in0.0 mm 0.00 in/hr0.0 mm/hr 0.00 in0.0 mm
03:44 AM 50.2°F10.1°C 39.2°F4.0°C 66% 5.1 mph NNW8.2 kmh NNW 13.9 mph22.4 kmh 29.83 in1010.2 mb 0.00 in0.0 mm 0.00 in/hr0.0 mm/hr 0.00 in0.0 mm
03:39 AM 50.4°F10.2°C 39.4°F4.1°C 66% 4.8 mph NW7.7 kmh NW 13.9 mph22.4 kmh 29.83 in1010.2 mb 0.00 in0.0 mm 0.00 in/hr0.0 mm/hr 0.00 in0.0 mm
03:34 AM 50.4°F10.2°C 39.4°F4.1°C 66% 5.0 mph WNW8.0 kmh WNW 6.9 mph11.1 kmh 29.84 in1010.5 mb 0.00 in0.0 mm 0.00 in/hr0.0 mm/hr 0.00 in0.0 mm
03:29 AM 50.4°F10.2°C 39.4°F4.1°C 66% 6.2 mph NW10.0 kmh NW 7.8 mph12.6 kmh 29.83 in1010.2 mb 0.00 in0.0 mm 0.00 in/hr0.0 mm/hr 0.00 in0.0 mm
03:24 AM 50.6°F10.3°C 40.1°F4.5°C 67% 3.9 mph WNW6.3 kmh WNW 7.8 mph12.6 kmh 29.84 in1010.5 mb 0.00 in0.0 mm 0.00 in/hr0.0 mm/hr 0.00 in0.0 mm
03:19 AM 50.8°F10.4°C 40.2°F4.6°C 67% 6.8 mph WNW10.9 kmh WNW 7.2 mph11.6 kmh 29.84 in1010.5 mb 0.00 in0.0 mm 0.00 in/hr0.0 mm/hr 0.00 in0.0 mm
03:14 AM 50.8°F10.4°C 40.2°F4.6°C 67% 2.2 mph NE3.5 kmh NE 4.9 mph7.9 kmh 29.84 in1010.5 mb 0.00 in0.0 mm 0.00 in/hr0.0 mm/hr 0.00 in0.0 mm
03:09 AM 50.9°F10.5°C 40.3°F4.6°C 67% 4.4 mph N7.1 kmh N 6.3 mph10.1 kmh 29.84 in1010.5 mb 0.00 in0.0 mm 0.00 in/hr0.0 mm/hr 0.00 in0.0 mm
03:04 AM 51.1°F10.6°C 40.5°F4.7°C 67% 3.8 mph S6.1 kmh S 6.3 mph10.1 kmh 29.84 in1010.5 mb 0.00 in0.0 mm 0.00 in/hr0.0 mm/hr 0.00 in0.0 mm
02:59 AM 51.1°F10.6°C 40.5°F4.7°C 67% 2.8 mph N4.5 kmh N 6.3 mph10.1 kmh 29.84 in1010.5 mb 0.00 in0.0 mm 0.00 in/hr0.0 mm/hr 0.00 in0.0 mm
02:54 AM 51.3°F10.7°C 40.7°F4.8°C 67% 3.0 mph NNE4.8 kmh NNE 6.3 mph10.1 kmh 29.84 in1010.5 mb 0.00 in0.0 mm 0.00 in/hr0.0 mm/hr 0.00 in0.0 mm
02:49 AM 51.5°F10.8°C 40.9°F4.9°C 67% 5.4 mph NNW8.7 kmh NNW 6.3 mph10.1 kmh 29.83 in1010.2 mb 0.00 in0.0 mm 0.00 in/hr0.0 mm/hr 0.00 in0.0 mm
02:44 AM 51.7°F10.9°C 40.7°F4.8°C 66% 4.4 mph NNW7.1 kmh NNW 9.4 mph15.1 kmh 29.83 in1010.2 mb 0.00 in0.0 mm 0.00 in/hr0.0 mm/hr 0.00 in0.0 mm
02:39 AM 51.8°F11.0°C 40.9°F4.9°C 66% 3.3 mph NW5.3 kmh NW 9.4 mph15.1 kmh 29.82 in1009.8 mb 0.00 in0.0 mm 0.00 in/hr0.0 mm/hr 0.00 in0.0 mm
02:34 AM 51.8°F11.0°C 40.9°F4.9°C 66% 3.7 mph NNW6.0 kmh NNW 9.2 mph14.8 kmh 29.81 in1009.5 mb 0.00 in0.0 mm 0.00 in/hr0.0 mm/hr 0.00 in0.0 mm
02:29 AM 52.2°F11.2°C 40.8°F4.9°C 65% 3.5 mph N5.6 kmh N 9.2 mph14.8 kmh 29.81 in1009.5 mb 0.00 in0.0 mm 0.00 in/hr0.0 mm/hr 0.00 in0.0 mm
02:24 AM 52.2°F11.2°C 40.8°F4.9°C 65% 4.8 mph N7.7 kmh N 9.4 mph15.1 kmh 29.81 in1009.5 mb 0.00 in0.0 mm 0.00 in/hr0.0 mm/hr 0.00 in0.0 mm
02:19 AM 52.4°F11.3°C 41.0°F5.0°C 65% 2.7 mph NNW4.3 kmh NNW 9.4 mph15.1 kmh 29.81 in1009.5 mb 0.00 in0.0 mm 0.00 in/hr0.0 mm/hr 0.00 in0.0 mm
02:14 AM 52.7°F11.5°C 41.3°F5.2°C 65% 6.4 mph NW10.3 kmh NW 9.4 mph15.1 kmh 29.80 in1009.1 mb 0.00 in0.0 mm 0.00 in/hr0.0 mm/hr 0.00 in0.0 mm
02:09 AM 52.9°F11.6°C 41.4°F5.2°C 65% 4.2 mph N6.8 kmh N 8.5 mph13.7 kmh 29.81 in1009.5 mb 0.00 in0.0 mm 0.00 in/hr0.0 mm/hr 0.00 in0.0 mm
02:04 AM 53.1°F11.7°C 41.2°F5.1°C 64% 5.3 mph WNW8.5 kmh WNW 11.4 mph18.3 kmh 29.81 in1009.5 mb 0.00 in0.0 mm 0.00 in/hr0.0 mm/hr 0.00 in0.0 mm
01:59 AM 53.3°F11.8°C 41.4°F5.2°C 64% 8.1 mph NW13.0 kmh NW 11.9 mph19.2 kmh 29.81 in1009.5 mb 0.00 in0.0 mm 0.00 in/hr0.0 mm/hr 0.00 in0.0 mm
01:54 AM 53.6°F12.0°C 41.8°F5.4°C 64% 6.2 mph NW10.0 kmh NW 11.9 mph19.2 kmh 29.80 in1009.1 mb 0.00 in0.0 mm 0.00 in/hr0.0 mm/hr 0.00 in0.0 mm
01:49 AM 53.6°F12.0°C 41.8°F5.4°C 64% 6.1 mph WNW9.8 kmh WNW 9.2 mph14.8 kmh 29.79 in1008.8 mb 0.00 in0.0 mm 0.00 in/hr0.0 mm/hr 0.00 in0.0 mm
01:44 AM 54.0°F12.2°C 41.7°F5.4°C 63% 4.8 mph WNW7.7 kmh WNW 8.1 mph13.0 kmh 29.79 in1008.8 mb 0.00 in0.0 mm 0.00 in/hr0.0 mm/hr 0.00 in0.0 mm
01:39 AM 54.4°F12.4°C 42.0°F5.6°C 63% 7.6 mph W12.2 kmh W 12.1 mph19.5 kmh 29.79 in1008.8 mb 0.00 in0.0 mm 0.00 in/hr0.0 mm/hr 0.00 in0.0 mm
01:34 AM 54.5°F12.5°C 42.2°F5.7°C 63% 7.0 mph WNW11.3 kmh WNW 12.1 mph19.5 kmh 29.79 in1008.8 mb 0.00 in0.0 mm 0.00 in/hr0.0 mm/hr 0.00 in0.0 mm
01:29 AM 54.7°F12.6°C 42.3°F5.7°C 63% 4.6 mph N7.4 kmh N 12.8 mph20.6 kmh 29.79 in1008.8 mb 0.00 in0.0 mm 0.00 in/hr0.0 mm/hr 0.00 in0.0 mm
01:24 AM 55.1°F12.8°C 42.3°F5.7°C 62% 8.5 mph NW13.7 kmh NW 12.8 mph20.6 kmh 29.78 in1008.5 mb 0.00 in0.0 mm 0.00 in/hr0.0 mm/hr 0.00 in0.0 mm
01:19 AM 55.4°F13.0°C 42.6°F5.9°C 62% 12.1 mph W19.5 kmh W 12.1 mph19.5 kmh 29.78 in1008.5 mb 0.00 in0.0 mm 0.00 in/hr0.0 mm/hr 0.00 in0.0 mm
01:14 AM 55.4°F13.0°C 42.6°F5.9°C 62% 7.6 mph NW12.2 kmh NW 10.3 mph16.6 kmh 29.77 in1008.1 mb 0.00 in0.0 mm 0.00 in/hr0.0 mm/hr 0.00 in0.0 mm
01:09 AM 55.8°F13.2°C 42.9°F6.1°C 62% 5.0 mph NW8.0 kmh NW 10.3 mph16.6 kmh 29.77 in1008.1 mb 0.00 in0.0 mm 0.00 in/hr0.0 mm/hr 0.00 in0.0 mm
01:04 AM 56.0°F13.3°C 43.1°F6.2°C 62% 5.8 mph WNW9.3 kmh WNW 8.3 mph13.4 kmh 29.77 in1008.1 mb 0.00 in0.0 mm 0.00 in/hr0.0 mm/hr 0.00 in0.0 mm
12:59 AM 56.2°F13.4°C 42.9°F6.1°C 61% 7.6 mph NW12.2 kmh NW 9.8 mph15.8 kmh 29.77 in1008.1 mb 0.00 in0.0 mm 0.00 in/hr0.0 mm/hr 0.00 in0.0 mm
12:54 AM 56.5°F13.6°C 43.7°F6.5°C 62% 7.5 mph NW12.1 kmh NW 10.1 mph16.3 kmh 29.76 in1007.8 mb 0.00 in0.0 mm 0.00 in/hr0.0 mm/hr 0.00 in0.0 mm
12:49 AM 56.5°F13.6°C 43.2°F6.2°C 61% 7.4 mph N11.9 kmh N 10.1 mph16.3 kmh 29.77 in1008.1 mb 0.00 in0.0 mm 0.00 in/hr0.0 mm/hr 0.00 in0.0 mm
12:44 AM 56.9°F13.8°C 44.0°F6.7°C 62% 5.7 mph NNE9.2 kmh NNE 8.9 mph14.3 kmh 29.77 in1008.1 mb 0.00 in0.0 mm 0.00 in/hr0.0 mm/hr 0.00 in0.0 mm
12:39 AM 57.1°F13.9°C 44.2°F6.8°C 62% 6.3 mph N10.1 kmh N 9.2 mph14.8 kmh 29.77 in1008.1 mb 0.00 in0.0 mm 0.00 in/hr0.0 mm/hr 0.00 in0.0 mm
12:34 AM 57.2°F14.0°C 44.4°F6.9°C 62% 5.4 mph NNW8.7 kmh NNW 9.2 mph14.8 kmh 29.76 in1007.8 mb 0.00 in0.0 mm 0.00 in/hr0.0 mm/hr 0.00 in0.0 mm
12:29 AM 57.4°F14.1°C 44.9°F7.2°C 63% 6.3 mph NW10.1 kmh NW 8.1 mph13.0 kmh 29.76 in1007.8 mb 0.00 in0.0 mm 0.00 in/hr0.0 mm/hr 0.00 in0.0 mm
12:24 AM 57.6°F14.2°C 45.1°F7.3°C 63% 4.9 mph NW7.9 kmh NW 6.5 mph10.5 kmh 29.76 in1007.8 mb 0.00 in0.0 mm 0.00 in/hr0.0 mm/hr 0.00 in0.0 mm
12:18 AM 58.0°F14.4°C 45.8°F7.7°C 64% 3.6 mph NW5.8 kmh NW 6.9 mph11.1 kmh 29.76 in1007.8 mb 0.00 in0.0 mm 0.00 in/hr0.0 mm/hr 0.00 in0.0 mm
12:13 AM 58.1°F14.5°C 45.6°F7.6°C 63% 4.4 mph NW7.1 kmh NW 9.2 mph14.8 kmh 29.76 in1007.8 mb 0.00 in0.0 mm 0.00 in/hr0.0 mm/hr 0.00 in0.0 mm
12:08 AM 58.1°F14.5°C 45.2°F7.3°C 62% 6.3 mph NNW10.1 kmh NNW 9.2 mph14.8 kmh 29.76 in1007.8 mb 0.00 in0.0 mm 0.00 in/hr0.0 mm/hr 0.00 in0.0 mm
12:03 AM 58.3°F14.6°C 45.4°F7.4°C 62% 7.1 mph NNW11.4 kmh NNW 8.5 mph13.7 kmh 29.75 in1007.5 mb 0.00 in0.0 mm 0.00 in/hr0.0 mm/hr 0.00 in0.0 mm